createdAt,value
2022-10-13T00:00:55.658Z,11.63
2022-10-13T00:06:59.815Z,19.38
2022-10-13T00:09:26.327Z,15.63
2022-10-13T00:11:56.399Z,14.18
2022-10-13T00:14:22.691Z,12.60
2022-10-13T00:16:49.038Z,11.65
2022-10-13T00:19:15.364Z,11.25
2022-10-13T00:21:41.672Z,13.85
2022-10-13T00:24:11.159Z,10.13
2022-10-13T00:26:37.476Z,12.55
2022-10-13T00:29:04.050Z,9.90
2022-10-13T00:31:32.136Z,10.32
2022-10-13T00:34:00.412Z,8.98
2022-10-13T00:36:27.459Z,10.75
2022-10-13T00:38:54.123Z,10.40
2022-10-13T00:41:21.335Z,11.80
2022-10-13T00:44:00.983Z,13.65
2022-10-13T00:46:30.639Z,10.38
2022-10-13T00:49:00.669Z,10.82
2022-10-13T00:51:31.248Z,14.63
2022-10-13T00:53:59.420Z,12.63
2022-10-13T00:56:27.363Z,12.75
2022-10-13T00:58:55.167Z,17.25
2022-10-13T01:01:22.112Z,13.70
2022-10-13T01:03:48.399Z,13.98
2022-10-13T01:06:19.907Z,14.68
2022-10-13T01:08:49.743Z,15.32
2022-10-13T01:11:34.805Z,16.95
2022-10-13T01:14:28.076Z,16.00
2022-10-13T01:17:15.921Z,19.98
2022-10-13T01:20:28.283Z,16.80
2022-10-13T01:23:10.929Z,14.27
2022-10-13T01:26:15.689Z,12.77
2022-10-13T01:28:53.825Z,14.00
2022-10-13T01:31:30.708Z,12.68
2022-10-13T01:33:59.438Z,13.50
2022-10-13T01:36:43.396Z,14.52
2022-10-13T01:39:22.310Z,11.55
2022-10-13T01:41:53.803Z,14.43
2022-10-13T01:44:32.532Z,12.52
2022-10-13T01:47:01.119Z,12.30
2022-10-13T01:49:32.196Z,10.95
2022-10-13T01:52:02.887Z,11.80
2022-10-13T01:54:29.195Z,11.23
2022-10-13T01:56:56.719Z,12.82
2022-10-13T01:59:25.543Z,14.15
2022-10-13T02:02:02.445Z,10.15
2022-10-13T02:04:56.427Z,12.35
2022-10-13T02:07:49.312Z,24.58
2022-10-13T02:10:32.696Z,17.02
2022-10-13T02:13:02.458Z,15.00
2022-10-13T02:15:33.788Z,12.82
2022-10-13T02:18:01.891Z,14.60
2022-10-13T02:20:28.774Z,13.40
2022-10-13T02:23:00.230Z,15.82
2022-10-13T02:25:27.893Z,17.48
2022-10-13T02:27:55.528Z,15.98
2022-10-13T02:30:29.031Z,13.35
2022-10-13T02:32:55.344Z,19.70
2022-10-13T02:35:21.931Z,15.27
2022-10-13T02:37:48.319Z,14.30
2022-10-13T02:40:14.825Z,13.50
2022-10-13T02:42:41.118Z,16.25
2022-10-13T02:45:08.325Z,13.57
2022-10-13T02:47:34.900Z,14.68
2022-10-13T02:50:01.303Z,12.32
2022-10-13T02:52:27.776Z,12.80
2022-10-13T02:54:54.081Z,12.65
2022-10-13T02:57:20.450Z,15.07
2022-10-13T02:59:46.755Z,13.38
2022-10-13T03:02:13.590Z,11.88
2022-10-13T03:04:39.984Z,11.40
2022-10-13T03:07:06.340Z,12.73
2022-10-13T03:09:32.910Z,12.13
2022-10-13T03:11:59.217Z,10.80
2022-10-13T03:14:25.743Z,10.75
2022-10-13T03:16:52.048Z,10.55
2022-10-13T03:19:18.354Z,11.02
2022-10-13T03:21:45.294Z,10.80
2022-10-13T03:24:11.900Z,12.07
2022-10-13T03:26:38.182Z,11.57
2022-10-13T03:29:04.499Z,10.98
2022-10-13T03:31:30.912Z,11.13
2022-10-13T03:33:57.259Z,10.77
2022-10-13T03:36:23.683Z,9.80
2022-10-13T03:38:50.103Z,11.20
2022-10-13T03:41:18.346Z,12.05
2022-10-13T03:43:45.047Z,13.02
2022-10-13T03:46:14.203Z,11.48
2022-10-13T03:48:40.804Z,10.55
2022-10-13T03:51:12.883Z,12.05
2022-10-13T03:53:39.777Z,15.02
2022-10-13T03:56:06.510Z,16.73
2022-10-13T03:58:32.903Z,13.60
2022-10-13T04:01:03.311Z,15.63
2022-10-13T04:03:29.732Z,12.50
2022-10-13T04:06:00.044Z,12.45
2022-10-13T04:08:27.202Z,14.52
2022-10-13T04:11:01.791Z,13.77
2022-10-13T04:13:28.150Z,15.23
2022-10-13T04:15:54.482Z,13.77
2022-10-13T04:18:20.875Z,14.02
2022-10-13T04:20:47.372Z,12.35
2022-10-13T04:23:14.316Z,14.05
2022-10-13T04:25:40.652Z,15.10
2022-10-13T04:28:07.425Z,15.18
2022-10-13T04:30:34.938Z,12.43
2022-10-13T04:33:01.642Z,12.15
2022-10-13T04:35:28.066Z,13.80
2022-10-13T04:37:54.402Z,11.40
2022-10-13T04:40:20.707Z,13.30
2022-10-13T04:42:47.160Z,14.52
2022-10-13T04:45:13.507Z,16.02
2022-10-13T04:47:39.898Z,17.42
2022-10-13T04:50:06.566Z,16.65
2022-10-13T04:52:34.488Z,16.90
2022-10-13T04:55:00.884Z,14.77
2022-10-13T04:57:27.309Z,16.42
2022-10-13T04:59:53.763Z,17.67
2022-10-13T05:02:20.394Z,14.77
2022-10-13T05:04:47.024Z,15.98
2022-10-13T05:07:18.115Z,16.48
2022-10-13T05:09:44.988Z,15.45
2022-10-13T05:12:11.379Z,15.40
2022-10-13T05:14:37.709Z,13.88
2022-10-13T05:17:04.039Z,17.02
2022-10-13T05:19:30.335Z,15.02
2022-10-13T05:21:56.732Z,16.60
2022-10-13T05:24:30.941Z,13.85
2022-10-13T05:26:58.071Z,15.98
2022-10-13T05:29:24.522Z,15.90
2022-10-13T05:31:50.822Z,15.25
2022-10-13T05:34:17.129Z,16.25
2022-10-13T05:36:43.520Z,17.15
2022-10-13T05:39:10.033Z,15.27
2022-10-13T05:41:36.415Z,16.48
2022-10-13T05:44:08.480Z,17.67
2022-10-13T05:46:35.166Z,20.25
2022-10-13T05:49:01.592Z,18.10
2022-10-13T05:51:37.479Z,15.52
2022-10-13T05:54:20.233Z,20.40
2022-10-13T05:56:57.560Z,22.73
2022-10-13T05:59:27.236Z,19.08
2022-10-13T06:01:54.336Z,17.13
2022-10-13T06:04:29.967Z,21.20
2022-10-13T06:09:22.561Z,18.50
2022-10-13T06:11:48.899Z,18.67
2022-10-13T06:14:15.230Z,18.85
2022-10-13T06:16:42.079Z,14.70
2022-10-13T06:19:08.379Z,15.45
2022-10-13T06:21:35.578Z,18.17
2022-10-13T06:24:02.527Z,13.88
2022-10-13T06:26:28.835Z,13.00
2022-10-13T06:28:59.262Z,17.35
2022-10-13T06:31:26.060Z,18.95
2022-10-13T06:33:52.430Z,14.85
2022-10-13T06:36:18.821Z,14.70
2022-10-13T06:38:45.119Z,15.20
2022-10-13T06:41:14.063Z,14.52
2022-10-13T06:43:41.035Z,18.17
2022-10-13T06:46:08.056Z,15.68
2022-10-13T06:48:34.676Z,13.68
2022-10-13T06:51:02.776Z,15.15
2022-10-13T06:53:29.176Z,18.48
2022-10-13T06:56:00.190Z,16.10
2022-10-13T06:58:26.973Z,13.45
2022-10-13T07:00:53.812Z,16.60
2022-10-13T07:03:24.941Z,15.75
2022-10-13T07:05:51.780Z,19.40
2022-10-13T07:08:18.988Z,15.68
2022-10-13T07:10:45.339Z,15.75
2022-10-13T07:13:11.877Z,17.20
2022-10-13T07:15:40.149Z,14.82
2022-10-13T07:18:07.521Z,15.93
2022-10-13T07:20:34.209Z,26.33
2022-10-13T07:23:00.581Z,20.77
2022-10-13T07:25:28.005Z,20.70
2022-10-13T07:27:54.472Z,21.48
2022-10-13T07:30:21.200Z,21.77
2022-10-13T07:32:48.158Z,21.75
2022-10-13T07:35:14.590Z,21.65
2022-10-13T07:37:40.955Z,21.73
2022-10-13T07:40:08.281Z,18.35
2022-10-13T07:42:34.618Z,18.17
2022-10-13T07:45:00.988Z,17.35
2022-10-13T07:47:28.450Z,19.00
2022-10-13T07:49:55.615Z,19.33
2022-10-13T07:52:22.352Z,17.42
2022-10-13T07:54:50.099Z,22.88
2022-10-13T07:57:16.692Z,23.70
2022-10-13T07:59:43.024Z,19.38
2022-10-13T08:02:10.058Z,24.73
2022-10-13T08:04:36.762Z,22.70
2022-10-13T08:07:05.799Z,26.90
2022-10-13T08:09:33.080Z,23.90
2022-10-13T08:12:00.903Z,23.17
2022-10-13T08:14:29.320Z,27.33
2022-10-13T08:16:56.278Z,26.33
2022-10-13T08:19:22.860Z,25.40
2022-10-13T08:21:58.742Z,34.03
2022-10-13T08:24:26.254Z,32.28
2022-10-13T08:26:52.793Z,26.83
2022-10-13T08:29:23.859Z,26.23
2022-10-13T08:31:53.185Z,30.83
2022-10-13T08:34:21.200Z,22.60
2022-10-13T08:36:47.716Z,29.10
2022-10-13T08:39:14.289Z,26.25
2022-10-13T08:41:46.715Z,24.50
2022-10-13T08:47:27.048Z,24.92
2022-10-13T08:50:00.835Z,25.10
2022-10-13T08:52:43.271Z,20.50
2022-10-13T08:55:17.893Z,22.05
2022-10-13T08:57:44.533Z,23.60
2022-10-13T09:00:13.184Z,25.38
2022-10-13T09:02:40.034Z,29.35
2022-10-13T09:05:17.427Z,31.70
2022-10-13T09:07:45.951Z,35.70
2022-10-13T09:10:12.592Z,34.67
2022-10-13T09:12:39.396Z,41.22
2022-10-13T09:15:11.284Z,28.95
2022-10-13T09:17:40.596Z,35.70
2022-10-13T09:20:19.692Z,39.10
2022-10-13T09:23:01.466Z,35.08
2022-10-13T09:25:27.941Z,34.85
2022-10-13T09:28:01.634Z,29.73
2022-10-13T09:30:48.551Z,39.05
2022-10-13T09:33:19.975Z,39.72
2022-10-13T09:35:58.619Z,36.10
2022-10-13T09:38:26.587Z,37.60
2022-10-13T09:41:06.519Z,39.63
2022-10-13T09:43:47.005Z,37.80
2022-10-13T09:46:23.839Z,41.10
2022-10-13T09:49:00.214Z,41.97
2022-10-13T09:51:32.744Z,50.40
2022-10-13T09:53:59.571Z,40.58
2022-10-13T09:56:33.604Z,35.22
2022-10-13T09:59:10.785Z,39.63
2022-10-13T10:01:41.744Z,41.17
2022-10-13T10:04:15.013Z,43.40
2022-10-13T10:06:42.711Z,46.05
2022-10-13T10:09:39.882Z,42.03
2022-10-13T10:12:09.424Z,32.55
2022-10-13T10:14:39.242Z,40.90
2022-10-13T10:17:30.833Z,40.15
2022-10-13T10:20:17.254Z,44.22
2022-10-13T10:23:09.382Z,39.03
2022-10-13T10:25:59.157Z,43.42
2022-10-13T10:28:37.653Z,41.17
2022-10-13T10:31:38.839Z,47.90
2022-10-13T10:34:24.103Z,46.95
2022-10-13T10:37:03.456Z,42.53
2022-10-13T10:40:04.260Z,41.13
2022-10-13T10:42:52.473Z,50.03
2022-10-13T10:45:23.981Z,36.90
2022-10-13T10:47:56.886Z,44.45
2022-10-13T10:50:24.214Z,43.28
2022-10-13T10:53:00.198Z,38.88
2022-10-13T10:55:29.548Z,34.97
2022-10-13T11:06:45.683Z,43.58
2022-10-13T11:09:18.710Z,36.20
2022-10-13T11:11:50.309Z,34.08
2022-10-13T11:14:30.350Z,37.40
2022-10-13T11:17:07.895Z,35.05
2022-10-13T11:19:40.812Z,32.60
2022-10-13T11:22:08.957Z,30.52
2022-10-13T11:24:42.610Z,31.73
2022-10-13T11:27:12.675Z,32.63
2022-10-13T11:29:57.810Z,28.92
2022-10-13T11:32:41.433Z,33.65
2022-10-13T11:35:19.523Z,27.52
2022-10-13T11:38:07.433Z,23.42
2022-10-13T11:40:37.443Z,25.67
2022-10-13T11:43:10.263Z,23.73
2022-10-13T11:45:58.088Z,22.10
2022-10-13T11:48:53.635Z,20.83
2022-10-13T11:51:57.910Z,19.30
2022-10-13T11:54:39.982Z,22.30
2022-10-13T11:57:24.460Z,21.13
2022-10-13T11:59:55.291Z,19.45
2022-10-13T12:02:26.885Z,22.63
2022-10-13T12:05:02.691Z,16.23
2022-10-13T12:07:36.934Z,20.45
2022-10-13T12:10:07.088Z,18.00
2022-10-13T12:12:33.817Z,21.35
2022-10-13T12:15:04.150Z,17.83
2022-10-13T12:17:38.825Z,18.08
2022-10-13T12:20:21.983Z,20.10
2022-10-13T12:22:49.730Z,27.10
2022-10-13T12:25:19.264Z,21.70
2022-10-13T12:27:48.444Z,22.13
2022-10-13T12:30:36.165Z,19.92
2022-10-13T12:33:04.136Z,20.35
2022-10-13T12:35:32.912Z,19.45
2022-10-13T12:38:06.492Z,20.52
2022-10-13T12:40:34.096Z,22.48
2022-10-13T12:43:01.062Z,20.55
2022-10-13T12:45:32.942Z,18.38
2022-10-13T12:47:59.448Z,22.75
2022-10-13T12:50:27.320Z,22.80
2022-10-13T12:53:10.880Z,21.52
2022-10-13T12:55:50.278Z,21.30
2022-10-13T12:58:21.670Z,21.27
2022-10-13T13:01:26.792Z,20.40
2022-10-13T13:03:58.823Z,19.35
2022-10-13T13:06:33.889Z,21.15
2022-10-13T13:09:20.840Z,20.80
2022-10-13T13:11:47.579Z,23.33
2022-10-13T13:14:37.289Z,20.17
2022-10-13T13:17:13.020Z,25.17
2022-10-13T13:19:42.179Z,25.48
2022-10-13T13:22:08.967Z,24.52
2022-10-13T13:24:40.057Z,22.60
2022-10-13T13:27:23.998Z,23.52
2022-10-13T13:29:50.733Z,24.13
2022-10-13T13:32:20.376Z,23.73
2022-10-13T13:34:47.225Z,20.70
2022-10-13T13:37:22.865Z,23.10
2022-10-13T13:39:49.376Z,22.88
2022-10-13T13:42:15.814Z,24.63
2022-10-13T13:44:42.161Z,21.80
2022-10-13T13:47:17.440Z,25.90
2022-10-13T13:52:10.241Z,17.60
2022-10-13T13:54:36.637Z,22.33
2022-10-13T13:57:03.108Z,22.67
2022-10-13T13:59:29.459Z,24.50
2022-10-13T14:01:55.925Z,30.15
2022-10-13T14:04:22.489Z,24.15
2022-10-13T14:06:48.769Z,22.75
2022-10-13T14:09:15.060Z,22.30
2022-10-13T14:11:41.370Z,24.77
2022-10-13T14:14:07.662Z,23.60
2022-10-13T14:16:33.985Z,24.58
2022-10-13T14:19:00.282Z,25.10
2022-10-13T14:21:26.631Z,21.40
2022-10-13T14:23:52.952Z,21.45
2022-10-13T14:26:19.246Z,22.73
2022-10-13T14:28:45.679Z,23.48
2022-10-13T14:31:12.057Z,24.83
2022-10-13T14:33:38.615Z,25.52
2022-10-13T14:36:06.636Z,29.67
2022-10-13T14:38:33.645Z,23.73
2022-10-13T14:41:01.633Z,28.33
2022-10-13T14:43:28.312Z,19.38
2022-10-13T14:45:55.175Z,24.85
2022-10-13T14:48:24.774Z,27.65
2022-10-13T14:50:51.326Z,21.27
2022-10-13T14:53:17.720Z,25.55
2022-10-13T14:55:44.998Z,41.42
2022-10-13T14:58:11.756Z,23.30
2022-10-13T15:00:38.638Z,26.58
2022-10-13T15:03:04.964Z,26.67
2022-10-13T15:05:31.417Z,28.70
2022-10-13T15:07:57.989Z,27.42
2022-10-13T15:10:24.319Z,28.17
2022-10-13T15:12:50.653Z,30.08
2022-10-13T15:15:16.973Z,28.55
2022-10-13T15:17:43.283Z,29.90
2022-10-13T15:20:09.993Z,34.05
2022-10-13T15:22:36.367Z,31.88
2022-10-13T15:25:04.426Z,34.22
2022-10-13T15:27:30.755Z,32.78
2022-10-13T15:29:57.056Z,31.80
2022-10-13T15:32:23.833Z,31.88
2022-10-13T15:34:50.379Z,35.33
2022-10-13T15:37:16.708Z,34.13
2022-10-13T15:39:43.294Z,34.45
2022-10-13T15:42:11.139Z,37.28
2022-10-13T15:45:08.226Z,34.60
2022-10-13T15:47:24.299Z,33.75
2022-10-13T15:49:50.605Z,38.97
2022-10-13T15:52:16.881Z,32.25
2022-10-13T15:54:43.211Z,36.63
2022-10-13T15:57:09.542Z,36.05
2022-10-13T15:59:35.831Z,35.13
2022-10-13T16:02:02.126Z,33.08
2022-10-13T16:04:29.736Z,32.08
2022-10-13T16:06:57.634Z,37.88
2022-10-13T16:09:23.963Z,33.70
2022-10-13T16:11:52.699Z,35.55
2022-10-13T16:14:19.027Z,30.08
2022-10-13T16:16:45.403Z,39.10
2022-10-13T16:19:11.771Z,31.27
2022-10-13T16:21:38.043Z,34.13
2022-10-13T16:24:04.903Z,33.05
2022-10-13T16:26:31.287Z,35.70
2022-10-13T16:28:58.014Z,30.02
2022-10-13T16:31:24.494Z,34.22
2022-10-13T16:33:50.815Z,29.23
2022-10-13T16:36:19.186Z,35.38
2022-10-13T16:38:46.592Z,29.67
2022-10-13T16:41:16.815Z,29.05
2022-10-13T16:43:44.716Z,29.60
2022-10-13T16:46:13.383Z,31.88
2022-10-13T16:48:40.764Z,32.10
2022-10-13T16:51:09.651Z,31.88
2022-10-13T16:53:35.933Z,31.95
2022-10-13T16:56:04.439Z,35.22
2022-10-13T16:58:30.846Z,34.03
2022-10-13T17:01:05.754Z,31.83
2022-10-13T17:03:32.143Z,30.92
2022-10-13T17:05:58.447Z,31.33
2022-10-13T17:08:24.806Z,34.13
2022-10-13T17:10:57.813Z,32.42
2022-10-13T17:13:24.753Z,32.95
2022-10-13T17:15:53.958Z,30.85
2022-10-13T17:18:20.764Z,32.58
2022-10-13T17:20:55.355Z,31.83
2022-10-13T17:23:22.657Z,32.47
2022-10-13T17:25:48.965Z,32.45
2022-10-13T17:28:15.672Z,35.53
2022-10-13T17:30:42.105Z,34.67
2022-10-13T17:33:09.183Z,34.67
2022-10-13T17:35:35.500Z,35.63
2022-10-13T17:38:01.789Z,35.38
2022-10-13T17:40:28.144Z,40.25
2022-10-13T17:42:55.020Z,37.90
2022-10-13T17:45:22.810Z,36.30
2022-10-13T17:47:50.544Z,32.72
2022-10-13T17:50:18.089Z,31.98
2022-10-13T17:52:44.432Z,33.40
2022-10-13T17:55:10.828Z,38.00
2022-10-13T17:57:37.268Z,35.67
2022-10-13T18:00:06.005Z,32.80
2022-10-13T18:02:32.296Z,34.20
2022-10-13T18:04:58.936Z,37.17
2022-10-13T18:07:25.236Z,32.33
2022-10-13T18:09:52.708Z,36.50
2022-10-13T18:12:19.589Z,35.90
2022-10-13T18:14:45.914Z,34.00
2022-10-13T18:17:12.229Z,31.88
2022-10-13T18:19:40.382Z,42.53
2022-10-13T18:22:06.901Z,37.75
2022-10-13T18:24:33.239Z,35.45
2022-10-13T18:26:59.511Z,40.05
2022-10-13T18:29:25.901Z,42.42
2022-10-13T18:31:55.281Z,41.72
2022-10-13T18:34:22.118Z,42.65
2022-10-13T18:36:51.197Z,38.28
2022-10-13T18:39:20.481Z,39.33
2022-10-13T18:41:47.641Z,31.92
2022-10-13T18:44:14.460Z,39.30
2022-10-13T18:46:40.859Z,38.78
2022-10-13T18:49:12.285Z,37.80
2022-10-13T18:51:39.129Z,39.70
2022-10-13T18:54:05.736Z,35.90
2022-10-13T18:56:33.234Z,36.83
2022-10-13T18:59:01.794Z,41.55
2022-10-13T19:01:31.378Z,38.92
2022-10-13T19:03:58.086Z,34.78
2022-10-13T19:06:27.049Z,33.92
2022-10-13T19:08:56.210Z,39.50
2022-10-13T19:11:23.316Z,36.28
2022-10-13T19:13:50.746Z,30.92
2022-10-13T19:16:20.092Z,33.08
2022-10-13T19:18:47.525Z,30.23
2022-10-13T19:21:14.436Z,25.58
2022-10-13T19:23:40.999Z,21.45
2022-10-13T19:26:16.640Z,21.02
2022-10-13T19:28:44.081Z,19.02
2022-10-13T19:31:20.466Z,15.82
2022-10-13T19:33:50.145Z,22.08
2022-10-13T19:36:26.847Z,15.52
2022-10-13T19:38:54.379Z,15.13
2022-10-13T19:41:21.314Z,13.07
2022-10-13T19:43:47.625Z,19.55
2022-10-13T19:46:14.413Z,17.60
2022-10-13T19:48:40.764Z,21.73
2022-10-13T19:51:08.742Z,19.90
2022-10-13T19:53:36.343Z,22.42
2022-10-13T19:56:02.744Z,19.83
2022-10-13T19:58:29.109Z,20.52
2022-10-13T20:00:55.511Z,21.85
2022-10-13T20:03:21.835Z,21.98
2022-10-13T20:05:48.184Z,25.08
2022-10-13T20:08:14.917Z,21.88
2022-10-13T20:10:43.204Z,18.83
2022-10-13T20:13:10.539Z,23.65
2022-10-13T20:15:41.904Z,24.85
2022-10-13T20:18:09.900Z,20.23
2022-10-13T20:20:36.925Z,18.83
2022-10-13T20:23:03.272Z,20.20
2022-10-13T20:25:29.614Z,21.75
2022-10-13T20:27:55.948Z,22.58
2022-10-13T20:30:22.288Z,24.05
2022-10-13T20:32:48.567Z,21.13
2022-10-13T20:35:14.888Z,24.50
2022-10-13T20:37:41.275Z,24.05
2022-10-13T20:40:08.012Z,28.38
2022-10-13T20:42:34.464Z,24.30
2022-10-13T20:45:00.759Z,24.58
2022-10-13T20:47:27.080Z,26.75
2022-10-13T20:49:53.384Z,25.65
2022-10-13T20:52:19.675Z,25.30
2022-10-13T20:54:46.032Z,29.65
2022-10-13T20:57:12.326Z,27.73
2022-10-13T20:59:38.757Z,30.67
2022-10-13T21:02:05.121Z,32.05
2022-10-13T21:04:31.606Z,30.15
2022-10-13T21:06:57.883Z,31.42
2022-10-13T21:09:24.264Z,30.05
2022-10-13T21:11:50.557Z,32.13
2022-10-13T21:14:16.867Z,34.28
2022-10-13T21:16:43.179Z,38.13
2022-10-13T21:19:09.653Z,34.58
2022-10-13T21:21:36.512Z,32.20
2022-10-13T21:24:05.541Z,32.45
2022-10-13T21:26:32.643Z,37.08
2022-10-13T21:28:59.967Z,34.25
2022-10-13T21:31:26.985Z,35.58
2022-10-13T21:33:54.256Z,39.17
2022-10-13T21:36:27.073Z,35.33
2022-10-13T21:38:55.929Z,38.22
2022-10-13T21:41:23.192Z,34.00
2022-10-13T21:43:51.098Z,38.38
2022-10-13T21:46:24.236Z,32.00
2022-10-13T21:48:53.176Z,33.13
2022-10-13T21:51:25.211Z,31.75
2022-10-13T21:54:00.004Z,37.22
2022-10-13T21:56:27.822Z,36.22
2022-10-13T21:58:55.840Z,38.03
2022-10-13T22:01:23.205Z,40.95
2022-10-13T22:03:53.889Z,37.92
2022-10-13T22:06:20.490Z,44.03
2022-10-13T22:08:49.579Z,38.05
2022-10-13T22:11:17.229Z,37.42
2022-10-13T22:13:43.779Z,37.72
2022-10-13T22:16:14.111Z,38.15
2022-10-13T22:18:40.754Z,42.13
2022-10-13T22:21:10.088Z,37.65
2022-10-13T22:23:36.397Z,33.92
2022-10-13T22:26:02.771Z,35.45
2022-10-13T22:28:33.471Z,36.38
2022-10-13T22:31:07.121Z,35.90
2022-10-13T22:33:35.096Z,34.65
2022-10-13T22:36:07.008Z,35.72
2022-10-13T22:38:33.341Z,34.17
2022-10-13T22:41:04.128Z,33.47
2022-10-13T22:43:30.497Z,32.55
2022-10-13T22:45:56.779Z,30.70
2022-10-13T22:48:23.256Z,27.95
2022-10-13T22:50:49.573Z,29.38
2022-10-13T22:53:15.872Z,31.17
2022-10-13T22:55:42.606Z,30.50
2022-10-13T22:58:09.008Z,34.08
2022-10-13T23:00:36.109Z,29.30
2022-10-13T23:03:02.901Z,33.65
2022-10-13T23:05:29.293Z,28.27
2022-10-13T23:07:55.834Z,29.25
2022-10-13T23:10:22.221Z,32.90
2022-10-13T23:12:48.675Z,30.30
2022-10-13T23:15:15.051Z,31.05
2022-10-13T23:17:41.388Z,28.42
2022-10-13T23:20:08.730Z,30.00
2022-10-13T23:22:35.010Z,25.30
2022-10-13T23:25:01.336Z,28.23
2022-10-13T23:27:27.733Z,24.02
2022-10-13T23:29:54.014Z,26.98
2022-10-13T23:32:20.288Z,28.73
2022-10-13T23:34:46.620Z,22.45
2022-10-13T23:37:12.903Z,27.00
2022-10-13T23:39:39.214Z,24.42
2022-10-13T23:42:05.557Z,22.30
2022-10-13T23:44:31.844Z,25.38
2022-10-13T23:46:58.141Z,21.83
2022-10-13T23:49:24.464Z,24.73
2022-10-13T23:51:50.722Z,20.65
2022-10-13T23:54:17.031Z,25.77
2022-10-13T23:56:43.316Z,19.50
2022-10-13T23:59:09.696Z,21.80
